sensor_id;sensor_type;location;lat;lon;timestamp;P1;durP1;ratioP1;P2;durP2;ratioP2
55021;SDS011;68328;35.990;-86.756;2023-04-26T00:01:30;3;;;3;;
55021;SDS011;68328;35.990;-86.756;2023-04-26T00:03:56;4;;;4;;
55021;SDS011;68328;35.990;-86.756;2023-04-26T00:06:20;4;;;4;;
55021;SDS011;68328;35.990;-86.756;2023-04-26T00:08:46;4;;;4;;
55021;SDS011;68328;35.990;-86.756;2023-04-26T00:11:12;4;;;4;;
55021;SDS011;68328;35.990;-86.756;2023-04-26T00:13:37;7;;;5;;
55021;SDS011;68328;35.990;-86.756;2023-04-26T00:16:03;4;;;3;;
55021;SDS011;68328;35.990;-86.756;2023-04-26T00:18:29;2;;;2;;
55021;SDS011;68328;35.990;-86.756;2023-04-26T00:20:53;4;;;4;;
55021;SDS011;68328;35.990;-86.756;2023-04-26T00:23:18;3;;;3;;
55021;SDS011;68328;35.990;-86.756;2023-04-26T00:25:44;4;;;4;;
55021;SDS011;68328;35.990;-86.756;2023-04-26T00:28:10;5;;;5;;
55021;SDS011;68328;35.990;-86.756;2023-04-26T00:30:35;8;;;8;;
55021;SDS011;68328;35.990;-86.756;2023-04-26T00:33:01;5;;;5;;
55021;SDS011;68328;35.990;-86.756;2023-04-26T00:35:26;8;;;8;;
55021;SDS011;68328;35.990;-86.756;2023-04-26T00:37:52;5;;;5;;
55021;SDS011;68328;35.990;-86.756;2023-04-26T00:40:17;8;;;8;;
55021;SDS011;68328;35.990;-86.756;2023-04-26T00:42:43;10;;;10;;
55021;SDS011;68328;35.990;-86.756;2023-04-26T00:45:08;6;;;6;;
55021;SDS011;68328;35.990;-86.756;2023-04-26T00:47:33;6;;;6;;
55021;SDS011;68328;35.990;-86.756;2023-04-26T00:49:58;8;;;6;;
55021;SDS011;68328;35.990;-86.756;2023-04-26T00:52:25;4;;;4;;
55021;SDS011;68328;35.990;-86.756;2023-04-26T00:54:49;5;;;5;;
55021;SDS011;68328;35.990;-86.756;2023-04-26T00:57:14;6;;;4;;
55021;SDS011;68328;35.990;-86.756;2023-04-26T00:59:39;6;;;6;;
55021;SDS011;68328;35.990;-86.756;2023-04-26T01:02:06;5;;;5;;
55021;SDS011;68328;35.990;-86.756;2023-04-26T01:04:30;4;;;4;;
55021;SDS011;68328;35.990;-86.756;2023-04-26T01:06:56;3;;;3;;
55021;SDS011;68328;35.990;-86.756;2023-04-26T01:09:21;4;;;4;;
55021;SDS011;68328;35.990;-86.756;2023-04-26T01:11:46;6;;;5;;
55021;SDS011;68328;35.990;-86.756;2023-04-26T01:14:12;5;;;4;;
55021;SDS011;68328;35.990;-86.756;2023-04-26T01:16:38;4;;;4;;
55021;SDS011;68328;35.990;-86.756;2023-04-26T01:19:07;4;;;4;;
55021;SDS011;68328;35.990;-86.756;2023-04-26T01:21:28;4;;;4;;
55021;SDS011;68328;35.990;-86.756;2023-04-26T01:23:53;4;;;4;;
55021;SDS011;68328;35.990;-86.756;2023-04-26T01:26:18;5;;;5;;
55021;SDS011;68328;35.990;-86.756;2023-04-26T01:28:44;2;;;2;;
55021;SDS011;68328;35.990;-86.756;2023-04-26T01:31:09;4;;;4;;
55021;SDS011;68328;35.990;-86.756;2023-04-26T01:33:35;5;;;5;;
55021;SDS011;68328;35.990;-86.756;2023-04-26T01:35:59;6;;;5;;
55021;SDS011;68328;35.990;-86.756;2023-04-26T01:38:25;4;;;4;;
55021;SDS011;68328;35.990;-86.756;2023-04-26T01:40:50;6;;;5;;
55021;SDS011;68328;35.990;-86.756;2023-04-26T01:43:16;3;;;3;;
55021;SDS011;68328;35.990;-86.756;2023-04-26T01:45:43;5;;;5;;
55021;SDS011;68328;35.990;-86.756;2023-04-26T01:48:08;4;;;4;;
55021;SDS011;68328;35.990;-86.756;2023-04-26T01:50:32;5;;;3;;
55021;SDS011;68328;35.990;-86.756;2023-04-26T01:52:57;6;;;6;;
55021;SDS011;68328;35.990;-86.756;2023-04-26T01:55:23;4;;;4;;
55021;SDS011;68328;35.990;-86.756;2023-04-26T01:57:49;6;;;4;;
55021;SDS011;68328;35.990;-86.756;2023-04-26T02:00:13;5;;;4;;
55021;SDS011;68328;35.990;-86.756;2023-04-26T02:02:39;4;;;4;;
55021;SDS011;68328;35.990;-86.756;2023-04-26T02:05:04;4;;;4;;
55021;SDS011;68328;35.990;-86.756;2023-04-26T02:07:30;10;;;5;;
55021;SDS011;68328;35.990;-86.756;2023-04-26T02:09:55;5;;;5;;
55021;SDS011;68328;35.990;-86.756;2023-04-26T02:12:20;6;;;6;;
55021;SDS011;68328;35.990;-86.756;2023-04-26T02:14:46;5;;;5;;
55021;SDS011;68328;35.990;-86.756;2023-04-26T02:17:11;6;;;6;;
55021;SDS011;68328;35.990;-86.756;2023-04-26T02:19:36;5;;;4;;
55021;SDS011;68328;35.990;-86.756;2023-04-26T02:22:03;6;;;6;;
55021;SDS011;68328;35.990;-86.756;2023-04-26T02:24:27;4;;;4;;
55021;SDS011;68328;35.990;-86.756;2023-04-26T02:26:52;3;;;3;;
55021;SDS011;68328;35.990;-86.756;2023-04-26T02:29:18;4;;;4;;
55021;SDS011;68328;35.990;-86.756;2023-04-26T02:31:43;5;;;5;;
55021;SDS011;68328;35.990;-86.756;2023-04-26T02:34:08;5;;;5;;
55021;SDS011;68328;35.990;-86.756;2023-04-26T02:36:34;3;;;3;;
55021;SDS011;68328;35.990;-86.756;2023-04-26T02:39:00;7;;;7;;
55021;SDS011;68328;35.990;-86.756;2023-04-26T02:41:24;5;;;5;;
55021;SDS011;68328;35.990;-86.756;2023-04-26T02:43:50;6;;;6;;
55021;SDS011;68328;35.990;-86.756;2023-04-26T02:46:15;5;;;5;;
55021;SDS011;68328;35.990;-86.756;2023-04-26T02:48:41;10;;;8;;
55021;SDS011;68328;35.990;-86.756;2023-04-26T02:51:06;8;;;8;;
55021;SDS011;68328;35.990;-86.756;2023-04-26T02:53:31;7;;;7;;
55021;SDS011;68328;35.990;-86.756;2023-04-26T02:55:56;7;;;7;;
55021;SDS011;68328;35.990;-86.756;2023-04-26T02:58:21;8;;;8;;
55021;SDS011;68328;35.990;-86.756;2023-04-26T03:00:47;5;;;5;;
55021;SDS011;68328;35.990;-86.756;2023-04-26T03:03:13;6;;;5;;
55021;SDS011;68328;35.990;-86.756;2023-04-26T03:05:38;7;;;6;;
55021;SDS011;68328;35.990;-86.756;2023-04-26T03:08:04;8;;;5;;
55021;SDS011;68328;35.990;-86.756;2023-04-26T03:10:28;9;;;8;;
55021;SDS011;68328;35.990;-86.756;2023-04-26T03:12:54;8;;;8;;
55021;SDS011;68328;35.990;-86.756;2023-04-26T03:15:19;6;;;6;;
55021;SDS011;68328;35.990;-86.756;2023-04-26T03:17:44;6;;;6;;
55021;SDS011;68328;35.990;-86.756;2023-04-26T03:20:10;7;;;7;;
55021;SDS011;68328;35.990;-86.756;2023-04-26T03:22:35;7;;;7;;
55021;SDS011;68328;35.990;-86.756;2023-04-26T03:25:01;6;;;6;;
55021;SDS011;68328;35.990;-86.756;2023-04-26T03:27:26;6;;;6;;
55021;SDS011;68328;35.990;-86.756;2023-04-26T03:29:52;6;;;6;;
55021;SDS011;68328;35.990;-86.756;2023-04-26T03:32:17;6;;;6;;
55021;SDS011;68328;35.990;-86.756;2023-04-26T03:34:42;8;;;8;;
55021;SDS011;68328;35.990;-86.756;2023-04-26T03:37:07;8;;;8;;
55021;SDS011;68328;35.990;-86.756;2023-04-26T03:39:32;8;;;6;;
55021;SDS011;68328;35.990;-86.756;2023-04-26T03:41:58;7;;;7;;
55021;SDS011;68328;35.990;-86.756;2023-04-26T03:44:23;8;;;7;;
55021;SDS011;68328;35.990;-86.756;2023-04-26T03:46:48;9;;;6;;
55021;SDS011;68328;35.990;-86.756;2023-04-26T03:49:15;6;;;6;;
55021;SDS011;68328;35.990;-86.756;2023-04-26T03:51:39;8;;;8;;
55021;SDS011;68328;35.990;-86.756;2023-04-26T03:54:05;7;;;7;;
55021;SDS011;68328;35.990;-86.756;2023-04-26T03:56:30;6;;;6;;
55021;SDS011;68328;35.990;-86.756;2023-04-26T03:58:55;10;;;6;;
55021;SDS011;68328;35.990;-86.756;2023-04-26T04:01:21;7;;;7;;
55021;SDS011;68328;35.990;-86.756;2023-04-26T04:03:46;8;;;8;;
55021;SDS011;68328;35.990;-86.756;2023-04-26T04:06:11;12;;;11;;
55021;SDS011;68328;35.990;-86.756;2023-04-26T04:08:36;9;;;9;;
55021;SDS011;68328;35.990;-86.756;2023-04-26T04:11:01;9;;;9;;
55021;SDS011;68328;35.990;-86.756;2023-04-26T04:13:28;8;;;8;;
55021;SDS011;68328;35.990;-86.756;2023-04-26T04:15:52;10;;;9;;
55021;SDS011;68328;35.990;-86.756;2023-04-26T04:18:18;6;;;6;;
55021;SDS011;68328;35.990;-86.756;2023-04-26T04:20:43;8;;;8;;
55021;SDS011;68328;35.990;-86.756;2023-04-26T04:23:09;7;;;7;;
55021;SDS011;68328;35.990;-86.756;2023-04-26T04:25:33;10;;;10;;
55021;SDS011;68328;35.990;-86.756;2023-04-26T04:27:58;8;;;8;;
55021;SDS011;68328;35.990;-86.756;2023-04-26T04:30:25;7;;;7;;
55021;SDS011;68328;35.990;-86.756;2023-04-26T04:32:49;8;;;8;;
55021;SDS011;68328;35.990;-86.756;2023-04-26T04:35:15;9;;;9;;
55021;SDS011;68328;35.990;-86.756;2023-04-26T04:37:40;9;;;9;;
55021;SDS011;68328;35.990;-86.756;2023-04-26T04:40:06;9;;;9;;
55021;SDS011;68328;35.990;-86.756;2023-04-26T04:42:31;10;;;10;;
55021;SDS011;68328;35.990;-86.756;2023-04-26T04:44:56;6;;;6;;
55021;SDS011;68328;35.990;-86.756;2023-04-26T04:47:22;9;;;9;;
55021;SDS011;68328;35.990;-86.756;2023-04-26T04:49:47;9;;;9;;
55021;SDS011;68328;35.990;-86.756;2023-04-26T04:52:12;9;;;9;;
55021;SDS011;68328;35.990;-86.756;2023-04-26T04:54:38;9;;;9;;
55021;SDS011;68328;35.990;-86.756;2023-04-26T04:57:04;7;;;7;;
55021;SDS011;68328;35.990;-86.756;2023-04-26T04:59:29;9;;;9;;
55021;SDS011;68328;35.990;-86.756;2023-04-26T05:01:55;8;;;8;;
55021;SDS011;68328;35.990;-86.756;2023-04-26T05:04:19;8;;;8;;
55021;SDS011;68328;35.990;-86.756;2023-04-26T05:06:44;11;;;9;;
55021;SDS011;68328;35.990;-86.756;2023-04-26T05:09:09;8;;;8;;
55021;SDS011;68328;35.990;-86.756;2023-04-26T05:11:35;9;;;9;;
55021;SDS011;68328;35.990;-86.756;2023-04-26T05:14:01;8;;;8;;
55021;SDS011;68328;35.990;-86.756;2023-04-26T05:16:27;10;;;10;;
55021;SDS011;68328;35.990;-86.756;2023-04-26T05:18:51;8;;;8;;
55021;SDS011;68328;35.990;-86.756;2023-04-26T05:21:16;9;;;9;;
55021;SDS011;68328;35.990;-86.756;2023-04-26T05:23:41;8;;;8;;
55021;SDS011;68328;35.990;-86.756;2023-04-26T05:26:09;9;;;9;;
55021;SDS011;68328;35.990;-86.756;2023-04-26T05:28:33;6;;;6;;
55021;SDS011;68328;35.990;-86.756;2023-04-26T05:30:57;10;;;10;;
55021;SDS011;68328;35.990;-86.756;2023-04-26T05:33:22;11;;;9;;
55021;SDS011;68328;35.990;-86.756;2023-04-26T05:35:48;11;;;11;;
55021;SDS011;68328;35.990;-86.756;2023-04-26T05:38:13;14;;;11;;
55021;SDS011;68328;35.990;-86.756;2023-04-26T05:40:39;8;;;8;;
55021;SDS011;68328;35.990;-86.756;2023-04-26T05:43:04;9;;;9;;
55021;SDS011;68328;35.990;-86.756;2023-04-26T05:45:29;11;;;11;;
55021;SDS011;68328;35.990;-86.756;2023-04-26T05:47:54;12;;;11;;
55021;SDS011;68328;35.990;-86.756;2023-04-26T05:50:20;10;;;10;;
55021;SDS011;68328;35.990;-86.756;2023-04-26T05:52:45;10;;;10;;
55021;SDS011;68328;35.990;-86.756;2023-04-26T05:55:10;10;;;10;;
55021;SDS011;68328;35.990;-86.756;2023-04-26T05:57:35;10;;;9;;
55021;SDS011;68328;35.990;-86.756;2023-04-26T06:00:01;13;;;13;;
55021;SDS011;68328;35.990;-86.756;2023-04-26T06:02:25;10;;;9;;
55021;SDS011;68328;35.990;-86.756;2023-04-26T06:04:51;11;;;9;;
55021;SDS011;68328;35.990;-86.756;2023-04-26T06:07:16;16;;;15;;
55021;SDS011;68328;35.990;-86.756;2023-04-26T06:09:42;11;;;10;;
55021;SDS011;68328;35.990;-86.756;2023-04-26T06:12:07;10;;;10;;
55021;SDS011;68328;35.990;-86.756;2023-04-26T06:14:33;10;;;10;;
55021;SDS011;68328;35.990;-86.756;2023-04-26T06:16:59;11;;;11;;
55021;SDS011;68328;35.990;-86.756;2023-04-26T06:19:23;11;;;11;;
55021;SDS011;68328;35.990;-86.756;2023-04-26T06:21:49;13;;;13;;
55021;SDS011;68328;35.990;-86.756;2023-04-26T06:24:15;11;;;9;;
55021;SDS011;68328;35.990;-86.756;2023-04-26T06:26:40;9;;;9;;
55021;SDS011;68328;35.990;-86.756;2023-04-26T06:29:05;9;;;9;;
55021;SDS011;68328;35.990;-86.756;2023-04-26T06:31:30;13;;;12;;
55021;SDS011;68328;35.990;-86.756;2023-04-26T06:33:56;11;;;11;;
55021;SDS011;68328;35.990;-86.756;2023-04-26T06:36:21;14;;;12;;
55021;SDS011;68328;35.990;-86.756;2023-04-26T06:38:46;10;;;10;;
55021;SDS011;68328;35.990;-86.756;2023-04-26T06:41:12;11;;;10;;
55021;SDS011;68328;35.990;-86.756;2023-04-26T06:43:37;11;;;10;;
55021;SDS011;68328;35.990;-86.756;2023-04-26T06:46:03;11;;;10;;
55021;SDS011;68328;35.990;-86.756;2023-04-26T06:48:28;13;;;11;;
55021;SDS011;68328;35.990;-86.756;2023-04-26T06:50:53;9;;;9;;
55021;SDS011;68328;35.990;-86.756;2023-04-26T06:53:19;8;;;8;;
55021;SDS011;68328;35.990;-86.756;2023-04-26T06:55:44;10;;;10;;
55021;SDS011;68328;35.990;-86.756;2023-04-26T06:58:09;12;;;12;;
55021;SDS011;68328;35.990;-86.756;2023-04-26T07:00:35;13;;;13;;
55021;SDS011;68328;35.990;-86.756;2023-04-26T07:03:00;12;;;12;;
55021;SDS011;68328;35.990;-86.756;2023-04-26T07:05:26;12;;;12;;
55021;SDS011;68328;35.990;-86.756;2023-04-26T07:07:51;11;;;10;;
55021;SDS011;68328;35.990;-86.756;2023-04-26T07:10:16;14;;;13;;
55021;SDS011;68328;35.990;-86.756;2023-04-26T07:12:41;10;;;10;;
55021;SDS011;68328;35.990;-86.756;2023-04-26T07:15:07;14;;;13;;
55021;SDS011;68328;35.990;-86.756;2023-04-26T07:17:32;14;;;13;;
55021;SDS011;68328;35.990;-86.756;2023-04-26T07:19:57;19;;;15;;
55021;SDS011;68328;35.990;-86.756;2023-04-26T07:22:22;13;;;13;;
55021;SDS011;68328;35.990;-86.756;2023-04-26T07:24:48;13;;;13;;
55021;SDS011;68328;35.990;-86.756;2023-04-26T07:27:13;11;;;11;;
55021;SDS011;68328;35.990;-86.756;2023-04-26T07:29:38;11;;;11;;
55021;SDS011;68328;35.990;-86.756;2023-04-26T07:32:05;12;;;11;;
55021;SDS011;68328;35.990;-86.756;2023-04-26T07:34:29;12;;;12;;
55021;SDS011;68328;35.990;-86.756;2023-04-26T07:36:55;13;;;12;;
55021;SDS011;68328;35.990;-86.756;2023-04-26T07:39:20;12;;;11;;
55021;SDS011;68328;35.990;-86.756;2023-04-26T07:41:45;17;;;17;;
55021;SDS011;68328;35.990;-86.756;2023-04-26T07:44:11;11;;;10;;
55021;SDS011;68328;35.990;-86.756;2023-04-26T07:46:36;12;;;12;;
55021;SDS011;68328;35.990;-86.756;2023-04-26T07:49:02;15;;;15;;
55021;SDS011;68328;35.990;-86.756;2023-04-26T07:51:27;11;;;10;;
55021;SDS011;68328;35.990;-86.756;2023-04-26T07:53:52;13;;;12;;
55021;SDS011;68328;35.990;-86.756;2023-04-26T07:56:18;10;;;10;;
55021;SDS011;68328;35.990;-86.756;2023-04-26T07:58:43;12;;;12;;
55021;SDS011;68328;35.990;-86.756;2023-04-26T08:01:09;15;;;12;;
55021;SDS011;68328;35.990;-86.756;2023-04-26T08:03:34;12;;;11;;
55021;SDS011;68328;35.990;-86.756;2023-04-26T08:05:59;11;;;10;;
55021;SDS011;68328;35.990;-86.756;2023-04-26T08:08:25;15;;;14;;
55021;SDS011;68328;35.990;-86.756;2023-04-26T08:10:50;11;;;11;;
55021;SDS011;68328;35.990;-86.756;2023-04-26T08:13:15;16;;;16;;
55021;SDS011;68328;35.990;-86.756;2023-04-26T08:15:40;10;;;10;;
55021;SDS011;68328;35.990;-86.756;2023-04-26T08:18:06;13;;;13;;
55021;SDS011;68328;35.990;-86.756;2023-04-26T08:20:31;13;;;12;;
55021;SDS011;68328;35.990;-86.756;2023-04-26T08:22:56;12;;;12;;
55021;SDS011;68328;35.990;-86.756;2023-04-26T08:25:21;11;;;11;;
55021;SDS011;68328;35.990;-86.756;2023-04-26T08:27:47;9;;;9;;
55021;SDS011;68328;35.990;-86.756;2023-04-26T08:30:12;11;;;11;;
55021;SDS011;68328;35.990;-86.756;2023-04-26T08:32:38;11;;;11;;
55021;SDS011;68328;35.990;-86.756;2023-04-26T08:35:03;11;;;11;;
55021;SDS011;68328;35.990;-86.756;2023-04-26T08:37:29;12;;;12;;
55021;SDS011;68328;35.990;-86.756;2023-04-26T08:39:54;12;;;12;;
55021;SDS011;68328;35.990;-86.756;2023-04-26T08:42:20;17;;;17;;
55021;SDS011;68328;35.990;-86.756;2023-04-26T08:44:44;10;;;10;;
55021;SDS011;68328;35.990;-86.756;2023-04-26T08:47:12;18;;;13;;
55021;SDS011;68328;35.990;-86.756;2023-04-26T08:49:38;12;;;11;;
55021;SDS011;68328;35.990;-86.756;2023-04-26T08:52:01;12;;;11;;
55021;SDS011;68328;35.990;-86.756;2023-04-26T08:54:26;12;;;12;;
55021;SDS011;68328;35.990;-86.756;2023-04-26T08:56:52;11;;;11;;
55021;SDS011;68328;35.990;-86.756;2023-04-26T08:59:17;12;;;12;;
55021;SDS011;68328;35.990;-86.756;2023-04-26T09:01:43;13;;;11;;
55021;SDS011;68328;35.990;-86.756;2023-04-26T09:04:07;12;;;10;;
55021;SDS011;68328;35.990;-86.756;2023-04-26T09:06:32;9;;;9;;
55021;SDS011;68328;35.990;-86.756;2023-04-26T09:08:58;11;;;11;;
55021;SDS011;68328;35.990;-86.756;2023-04-26T09:11:23;11;;;10;;
55021;SDS011;68328;35.990;-86.756;2023-04-26T09:13:49;16;;;16;;
55021;SDS011;68328;35.990;-86.756;2023-04-26T09:16:14;15;;;12;;
55021;SDS011;68328;35.990;-86.756;2023-04-26T09:21:05;14;;;14;;
55021;SDS011;68328;35.990;-86.756;2023-04-26T09:23:30;14;;;14;;
55021;SDS011;68328;35.990;-86.756;2023-04-26T09:25:55;10;;;10;;
55021;SDS011;68328;35.990;-86.756;2023-04-26T09:28:21;12;;;12;;
55021;SDS011;68328;35.990;-86.756;2023-04-26T09:30:47;15;;;15;;
55021;SDS011;68328;35.990;-86.756;2023-04-26T09:33:11;12;;;12;;
55021;SDS011;68328;35.990;-86.756;2023-04-26T09:35:37;13;;;10;;
55021;SDS011;68328;35.990;-86.756;2023-04-26T09:38:02;14;;;14;;
55021;SDS011;68328;35.990;-86.756;2023-04-26T09:40:27;14;;;14;;
55021;SDS011;68328;35.990;-86.756;2023-04-26T09:42:56;13;;;11;;
55021;SDS011;68328;35.990;-86.756;2023-04-26T09:45:18;15;;;15;;
55021;SDS011;68328;35.990;-86.756;2023-04-26T09:47:43;14;;;13;;
55021;SDS011;68328;35.990;-86.756;2023-04-26T09:50:08;13;;;13;;
55021;SDS011;68328;35.990;-86.756;2023-04-26T09:55:00;12;;;11;;
55021;SDS011;68328;35.990;-86.756;2023-04-26T09:57:26;12;;;12;;
55021;SDS011;68328;35.990;-86.756;2023-04-26T09:59:51;18;;;14;;
55021;SDS011;68328;35.990;-86.756;2023-04-26T10:02:16;13;;;12;;
55021;SDS011;68328;35.990;-86.756;2023-04-26T10:04:42;11;;;11;;
55021;SDS011;68328;35.990;-86.756;2023-04-26T10:07:06;13;;;13;;
55021;SDS011;68328;35.990;-86.756;2023-04-26T10:09:32;13;;;13;;
55021;SDS011;68328;35.990;-86.756;2023-04-26T10:11:57;14;;;13;;
55021;SDS011;68328;35.990;-86.756;2023-04-26T10:14:23;14;;;14;;
55021;SDS011;68328;35.990;-86.756;2023-04-26T10:16:48;17;;;17;;
55021;SDS011;68328;35.990;-86.756;2023-04-26T10:19:13;15;;;14;;
55021;SDS011;68328;35.990;-86.756;2023-04-26T10:21:38;11;;;10;;
55021;SDS011;68328;35.990;-86.756;2023-04-26T10:24:05;12;;;12;;
55021;SDS011;68328;35.990;-86.756;2023-04-26T10:28:54;15;;;14;;
55021;SDS011;68328;35.990;-86.756;2023-04-26T10:31:21;15;;;13;;
55021;SDS011;68328;35.990;-86.756;2023-04-26T10:33:45;14;;;13;;
55021;SDS011;68328;35.990;-86.756;2023-04-26T10:36:11;14;;;12;;
55021;SDS011;68328;35.990;-86.756;2023-04-26T10:38:36;14;;;14;;
55021;SDS011;68328;35.990;-86.756;2023-04-26T10:43:27;13;;;12;;
55021;SDS011;68328;35.990;-86.756;2023-04-26T10:45:52;11;;;11;;
55021;SDS011;68328;35.990;-86.756;2023-04-26T10:48:18;16;;;16;;
55021;SDS011;68328;35.990;-86.756;2023-04-26T10:53:09;18;;;17;;
55021;SDS011;68328;35.990;-86.756;2023-04-26T10:55:37;14;;;13;;
55021;SDS011;68328;35.990;-86.756;2023-04-26T10:57:59;13;;;13;;
55021;SDS011;68328;35.990;-86.756;2023-04-26T11:00:26;16;;;13;;
55021;SDS011;68328;35.990;-86.756;2023-04-26T11:02:52;14;;;11;;
55021;SDS011;68328;35.990;-86.756;2023-04-26T11:07:39;15;;;15;;
55021;SDS011;68328;35.990;-86.756;2023-04-26T11:10:07;17;;;17;;
55021;SDS011;68328;35.990;-86.756;2023-04-26T11:12:30;13;;;13;;
55021;SDS011;68328;35.990;-86.756;2023-04-26T11:14:56;14;;;14;;
55021;SDS011;68328;35.990;-86.756;2023-04-26T11:17:22;16;;;15;;
55021;SDS011;68328;35.990;-86.756;2023-04-26T11:19:47;14;;;13;;
55021;SDS011;68328;35.990;-86.756;2023-04-26T11:22:13;16;;;16;;
55021;SDS011;68328;35.990;-86.756;2023-04-26T11:24:37;13;;;13;;
55021;SDS011;68328;35.990;-86.756;2023-04-26T11:27:07;13;;;13;;
55021;SDS011;68328;35.990;-86.756;2023-04-26T11:29:28;11;;;11;;
55021;SDS011;68328;35.990;-86.756;2023-04-26T11:31:55;16;;;14;;
55021;SDS011;68328;35.990;-86.756;2023-04-26T11:34:20;17;;;14;;
55021;SDS011;68328;35.990;-86.756;2023-04-26T11:36:44;19;;;19;;
55021;SDS011;68328;35.990;-86.756;2023-04-26T11:39:09;12;;;12;;
55021;SDS011;68328;35.990;-86.756;2023-04-26T11:41:35;21;;;18;;
55021;SDS011;68328;35.990;-86.756;2023-04-26T11:44:00;14;;;14;;
55021;SDS011;68328;35.990;-86.756;2023-04-26T11:46:25;13;;;13;;
55021;SDS011;68328;35.990;-86.756;2023-04-26T11:48:51;13;;;13;;
55021;SDS011;68328;35.990;-86.756;2023-04-26T11:51:16;13;;;13;;
55021;SDS011;68328;35.990;-86.756;2023-04-26T11:53:41;16;;;15;;
55021;SDS011;68328;35.990;-86.756;2023-04-26T11:58:32;13;;;12;;
55021;SDS011;68328;35.990;-86.756;2023-04-26T12:00:59;10;;;10;;
55021;SDS011;68328;35.990;-86.756;2023-04-26T12:03:28;13;;;12;;
55021;SDS011;68328;35.990;-86.756;2023-04-26T12:05:52;9;;;9;;
55021;SDS011;68328;35.990;-86.756;2023-04-26T12:08:14;15;;;15;;
55021;SDS011;68328;35.990;-86.756;2023-04-26T12:10:41;12;;;11;;
55021;SDS011;68328;35.990;-86.756;2023-04-26T12:13:06;12;;;11;;
55021;SDS011;68328;35.990;-86.756;2023-04-26T12:15:31;12;;;10;;
55021;SDS011;68328;35.990;-86.756;2023-04-26T12:17:57;15;;;15;;
55021;SDS011;68328;35.990;-86.756;2023-04-26T12:20:27;14;;;14;;
55021;SDS011;68328;35.990;-86.756;2023-04-26T12:25:12;11;;;11;;
55021;SDS011;68328;35.990;-86.756;2023-04-26T12:27:37;11;;;10;;
55021;SDS011;68328;35.990;-86.756;2023-04-26T12:30:03;9;;;9;;
55021;SDS011;68328;35.990;-86.756;2023-04-26T12:32:27;10;;;10;;
55021;SDS011;68328;35.990;-86.756;2023-04-26T12:34:52;10;;;10;;
55021;SDS011;68328;35.990;-86.756;2023-04-26T12:37:18;9;;;9;;
55021;SDS011;68328;35.990;-86.756;2023-04-26T12:39:43;7;;;7;;
55021;SDS011;68328;35.990;-86.756;2023-04-26T12:42:10;9;;;9;;
55021;SDS011;68328;35.990;-86.756;2023-04-26T12:44:34;9;;;9;;
55021;SDS011;68328;35.990;-86.756;2023-04-26T12:46:59;9;;;9;;
55021;SDS011;68328;35.990;-86.756;2023-04-26T12:49:25;9;;;9;;
55021;SDS011;68328;35.990;-86.756;2023-04-26T12:51:50;10;;;10;;
55021;SDS011;68328;35.990;-86.756;2023-04-26T12:54:16;10;;;8;;
55021;SDS011;68328;35.990;-86.756;2023-04-26T12:56:40;10;;;10;;
55021;SDS011;68328;35.990;-86.756;2023-04-26T12:59:06;10;;;9;;
55021;SDS011;68328;35.990;-86.756;2023-04-26T13:01:31;10;;;10;;
55021;SDS011;68328;35.990;-86.756;2023-04-26T13:03:56;10;;;8;;
55021;SDS011;68328;35.990;-86.756;2023-04-26T13:06:23;11;;;10;;
55021;SDS011;68328;35.990;-86.756;2023-04-26T13:08:47;13;;;11;;
55021;SDS011;68328;35.990;-86.756;2023-04-26T13:11:13;8;;;8;;
55021;SDS011;68328;35.990;-86.756;2023-04-26T13:13:39;9;;;9;;
55021;SDS011;68328;35.990;-86.756;2023-04-26T13:16:04;13;;;11;;
55021;SDS011;68328;35.990;-86.756;2023-04-26T13:18:28;10;;;10;;
55021;SDS011;68328;35.990;-86.756;2023-04-26T13:20:54;10;;;10;;
55021;SDS011;68328;35.990;-86.756;2023-04-26T13:23:19;10;;;10;;
55021;SDS011;68328;35.990;-86.756;2023-04-26T13:25:44;7;;;7;;
55021;SDS011;68328;35.990;-86.756;2023-04-26T13:28:09;10;;;10;;
55021;SDS011;68328;35.990;-86.756;2023-04-26T13:30:35;10;;;10;;
55021;SDS011;68328;35.990;-86.756;2023-04-26T13:33:01;12;;;12;;
55021;SDS011;68328;35.990;-86.756;2023-04-26T13:35:26;9;;;9;;
55021;SDS011;68328;35.990;-86.756;2023-04-26T13:37:51;12;;;12;;
55021;SDS011;68328;35.990;-86.756;2023-04-26T13:40:16;16;;;13;;
55021;SDS011;68328;35.990;-86.756;2023-04-26T13:42:41;10;;;10;;
55021;SDS011;68328;35.990;-86.756;2023-04-26T13:45:07;10;;;9;;
55021;SDS011;68328;35.990;-86.756;2023-04-26T13:47:32;11;;;11;;
55021;SDS011;68328;35.990;-86.756;2023-04-26T13:49:57;7;;;7;;
55021;SDS011;68328;35.990;-86.756;2023-04-26T13:52:23;8;;;8;;
55021;SDS011;68328;35.990;-86.756;2023-04-26T13:54:49;11;;;7;;
55021;SDS011;68328;35.990;-86.756;2023-04-26T13:57:13;10;;;8;;
55021;SDS011;68328;35.990;-86.756;2023-04-26T13:59:39;7;;;7;;
55021;SDS011;68328;35.990;-86.756;2023-04-26T14:02:05;9;;;9;;
55021;SDS011;68328;35.990;-86.756;2023-04-26T14:04:29;10;;;10;;
55021;SDS011;68328;35.990;-86.756;2023-04-26T14:06:55;11;;;9;;
55021;SDS011;68328;35.990;-86.756;2023-04-26T14:09:20;11;;;10;;
55021;SDS011;68328;35.990;-86.756;2023-04-26T14:11:45;8;;;7;;
55021;SDS011;68328;35.990;-86.756;2023-04-26T14:14:10;8;;;8;;
55021;SDS011;68328;35.990;-86.756;2023-04-26T14:16:35;12;;;11;;
55021;SDS011;68328;35.990;-86.756;2023-04-26T14:19:01;7;;;7;;
55021;SDS011;68328;35.990;-86.756;2023-04-26T14:21:26;9;;;9;;
55021;SDS011;68328;35.990;-86.756;2023-04-26T14:23:51;11;;;10;;
55021;SDS011;68328;35.990;-86.756;2023-04-26T14:26:17;11;;;9;;
55021;SDS011;68328;35.990;-86.756;2023-04-26T14:28:42;11;;;10;;
55021;SDS011;68328;35.990;-86.756;2023-04-26T14:31:07;11;;;9;;
55021;SDS011;68328;35.990;-86.756;2023-04-26T14:33:32;9;;;9;;
55021;SDS011;68328;35.990;-86.756;2023-04-26T14:35:58;10;;;10;;
55021;SDS011;68328;35.990;-86.756;2023-04-26T14:38:23;12;;;12;;
55021;SDS011;68328;35.990;-86.756;2023-04-26T14:40:48;8;;;8;;
55021;SDS011;68328;35.990;-86.756;2023-04-26T14:43:14;9;;;9;;
55021;SDS011;68328;35.990;-86.756;2023-04-26T14:45:41;8;;;7;;
55021;SDS011;68328;35.990;-86.756;2023-04-26T14:48:05;8;;;8;;
55021;SDS011;68328;35.990;-86.756;2023-04-26T14:50:30;11;;;9;;
55021;SDS011;68328;35.990;-86.756;2023-04-26T14:52:56;10;;;9;;
55021;SDS011;68328;35.990;-86.756;2023-04-26T14:55:22;8;;;8;;
55021;SDS011;68328;35.990;-86.756;2023-04-26T14:57:46;11;;;8;;
55021;SDS011;68328;35.990;-86.756;2023-04-26T15:00:13;11;;;9;;
55021;SDS011;68328;35.990;-86.756;2023-04-26T15:02:36;8;;;8;;
55021;SDS011;68328;35.990;-86.756;2023-04-26T15:05:02;11;;;9;;
55021;SDS011;68328;35.990;-86.756;2023-04-26T15:07:28;8;;;8;;
55021;SDS011;68328;35.990;-86.756;2023-04-26T15:09:53;10;;;8;;
55021;SDS011;68328;35.990;-86.756;2023-04-26T15:12:18;7;;;7;;
55021;SDS011;68328;35.990;-86.756;2023-04-26T15:14:43;8;;;8;;
55021;SDS011;68328;35.990;-86.756;2023-04-26T15:17:08;8;;;7;;
55021;SDS011;68328;35.990;-86.756;2023-04-26T15:19:34;7;;;7;;
55021;SDS011;68328;35.990;-86.756;2023-04-26T15:21:59;8;;;8;;
55021;SDS011;68328;35.990;-86.756;2023-04-26T15:24:24;8;;;8;;
55021;SDS011;68328;35.990;-86.756;2023-04-26T15:26:50;8;;;7;;
55021;SDS011;68328;35.990;-86.756;2023-04-26T15:29:16;10;;;10;;
55021;SDS011;68328;35.990;-86.756;2023-04-26T15:31:41;9;;;9;;
55021;SDS011;68328;35.990;-86.756;2023-04-26T15:34:06;9;;;9;;
55021;SDS011;68328;35.990;-86.756;2023-04-26T15:36:31;10;;;10;;